Gela, Italy

11:11 AM CEST on April 27, 2017 (GMT +0200)
Gela | | Change Station

Elev 108 ft 37.08 °N, 14.22 °E | Updated 1 hour ago

Clear
Clear
73 °F
Feels Like 73 °F
N
2
Wind Variable Wind from SSE

Today
High -- | Low -- °F
--% Chance of Precip.
Yesterday
High -- | Low -- °F
Precip. -- in
Pressure 29.98 in
Visibility -9999.0 miles
Clouds
Dew Point 54 °F
Humidity 50%
Rainfall 0.00 in
Snow Depth Not available.
6:13 AM 7:48 PM
New Moon, 1% visible
METAR LICL 270755Z 15002KT CAVOK 23/12 Q1015 RMK BKN BKN200 QUK 2 QUL 0 VIS MAR 16 KM VIS MIN 9999
Pressure 29.98 in
Visibility -9999.0 miles
Clouds
Dew Point 54 °F
Humidity 50%
Rainfall 0.00 in
Snow Depth Not available.
6:13 AM 7:48 PM
New Moon, 1% visible
METAR LICL 270755Z 15002KT CAVOK 23/12 Q1015 RMK BKN BKN200 QUK 2 QUL 0 VIS MAR 16 KM VIS MIN 9999

Get Severe Weather Alerts

Thanks for signing up!

Be on the lookout for a verification email in your inbox.

You'll start receiving the daily forecast at 8 AM.

×

10-Day Weather Forecast

No radar image for this location.
×

Almanac

Astronomy

Apr. 27, 2017 Rise Set
Actual Time
Civil Twilight
Nautical Twilight
Astronomical Twilight
Moon
Length of Visible Light
Length of Day
Tomorrow will be .
, % of the Moon is Illuminated

Today's Extremes

Country Highs Country Lows

Community

WunderPhotos

WunderBlog® & News

Nearby

Air Quality

  Air Quality AQ Index Pollutant
Not available.

Snow Depth

Station Depth Elevation

Earthquake Activity

City Distance Mag. Time & Date
Minimum magnitude displayed is 2.5.

Coastal Water Temperatures

Place Temperature

Stations

Nearby Weather Stations

Station Location Temp. Windchill Dew Point Humidity Wind Precip. Elev Updated Type